Time;durP1;ratioP1;P1;durP2;ratioP2;P2;SDS_P1;SDS_P2;PMS_P1;PMS_P2;Temp;Humidity;BMP_temperature;BMP_pressure;BME280_temperature;BME280_humidity;BME280_pressure;Samples;Min_cycle;Max_cycle;Signal;HPM_P1;HPM_P2
2023/11/23 00:02:19;;;;;;;10.60;5.20;;;;;;;3.74;49.28;101479.14;106144;1258;61522;-85
2023/11/23 00:04:59;;;;;;;10.90;4.50;;;;;;;3.70;49.28;101471.50;106354;1262;61151;-85
2023/11/23 00:07:39;;;;;;;7.70;4.00;;;;;;;3.79;49.28;101459.05;106307;1260;74668;-85
2023/11/23 00:10:19;;;;;;;6.50;3.90;;;;;;;3.78;49.03;101453.52;106186;1259;68842;-84
2023/11/23 00:12:59;;;;;;;7.90;4.10;;;;;;;3.77;49.40;101452.73;106146;1257;72683;-85
2023/11/23 00:15:39;;;;;;;6.00;3.70;;;;;;;3.85;49.24;101449.02;106462;1259;61244;-85
2023/11/23 00:18:19;;;;;;;11.90;5.70;;;;;;;3.83;49.01;101446.52;106173;1254;61298;-85
2023/11/23 00:20:59;;;;;;;8.70;4.90;;;;;;;3.67;48.98;101442.92;106223;1259;73700;-84
2023/11/23 00:23:38;;;;;;;9.60;4.80;;;;;;;3.72;48.90;101439.60;106248;1259;68365;-85
2023/11/23 00:26:18;;;;;;;14.90;6.60;;;;;;;3.70;49.03;101438.52;106248;1260;72694;-85
2023/11/23 00:29:03;;;;;;;15.00;7.00;;;;;;;3.80;49.08;101440.55;106079;1260;61231;-85
2023/11/23 00:31:43;;;;;;;11.50;5.90;;;;;;;3.81;49.30;101430.52;106316;1258;61396;-85
2023/11/23 00:34:22;;;;;;;15.00;6.40;;;;;;;3.84;49.35;101427.77;106249;1259;73453;-85
2023/11/23 00:37:02;;;;;;;9.50;4.50;;;;;;;3.86;49.36;101424.90;106590;1259;67309;-85
2023/11/23 00:39:42;;;;;;;8.10;4.00;;;;;;;3.77;49.46;101432.33;106391;1260;71088;-85
2023/11/23 00:42:24;;;;;;;10.00;4.40;;;;;;;3.69;49.81;101428.37;106325;1259;61341;-85
2023/11/23 00:45:04;;;;;;;26.20;7.50;;;;;;;3.81;49.44;101429.02;106333;1256;60236;-85
2023/11/23 00:47:44;;;;;;;15.20;5.90;;;;;;;3.89;49.30;101429.13;106546;1256;74795;-84
2023/11/23 00:50:24;;;;;;;7.10;4.60;;;;;;;3.91;49.36;101431.21;106216;1259;68862;-85
2023/11/23 00:53:08;;;;;;;8.10;4.20;;;;;;;3.96;49.41;101425.09;106150;1260;71514;-85
2023/11/23 00:55:51;;;;;;;13.20;5.10;;;;;;;3.95;49.51;101432.08;106143;1257;61160;-85
2023/11/23 00:58:30;;;;;;;;;;;;;;;3.85;49.64;101431.17;106238;1258;61749;-85
2023/11/23 01:01:10;;;;;;;17.10;5.10;;;;;;;3.80;49.75;101427.23;106352;1257;74725;-85
2023/11/23 01:03:50;;;;;;;13.20;5.40;;;;;;;3.68;49.78;101420.02;106179;1260;68492;-84
2023/11/23 01:06:30;;;;;;;6.30;3.70;;;;;;;3.65;49.70;101419.23;106145;1262;72674;-84
2023/11/23 01:09:11;;;;;;;6.60;3.50;;;;;;;3.67;49.27;101416.23;106192;1269;61340;-86
2023/11/23 01:11:51;;;;;;;6.90;3.80;;;;;;;3.62;49.24;101417.66;106180;1254;61445;-85
2023/11/23 01:14:31;;;;;;;9.50;4.40;;;;;;;3.53;49.31;101412.56;106224;1254;73447;-86
2023/11/23 01:17:11;;;;;;;14.00;5.40;;;;;;;3.57;49.17;101407.17;106252;1260;68407;-86
2023/11/23 01:19:52;;;;;;;11.90;5.20;;;;;;;3.62;49.46;101415.91;106070;1260;73117;-86
2023/11/23 01:22:32;;;;;;;6.60;3.50;;;;;;;3.67;49.62;101417.69;106251;1260;61283;-85
2023/11/23 01:25:13;;;;;;;8.70;4.50;;;;;;;3.75;49.21;101414.64;106269;1259;61119;-86
2023/11/23 01:27:59;;;;;;;8.30;3.90;;;;;;;3.70;49.25;101411.16;106139;1254;74659;-86
2023/11/23 01:30:39;;;;;;;9.00;4.60;;;;;;;3.70;49.54;101412.63;106304;1257;67652;-86
2023/11/23 01:33:19;;;;;;;8.60;4.10;;;;;;;3.73;49.44;101417.96;106667;1260;72727;-85
2023/11/23 01:35:59;;;;;;;9.40;4.10;;;;;;;3.73;49.20;101414.23;106218;1255;61429;-86
2023/11/23 01:38:46;;;;;;;6.90;4.40;;;;;;;3.62;49.43;101424.19;106299;1260;61239;-85
2023/11/23 01:41:26;;;;;;;7.90;3.70;;;;;;;3.56;49.42;101430.00;106276;1254;72388;-86
2023/11/23 01:44:07;;;;;;;9.60;4.00;;;;;;;3.61;49.52;101431.42;106270;1254;68597;-86
2023/11/23 01:46:48;;;;;;;7.20;4.20;;;;;;;3.70;49.48;101425.30;106162;1257;72467;-86
2023/11/23 01:49:29;;;;;;;8.10;3.80;;;;;;;3.72;49.46;101416.43;106316;1259;61363;-85
2023/11/23 01:52:16;;;;;;;5.10;3.50;;;;;;;3.68;49.43;101413.64;106245;1257;61089;-86
2023/11/23 01:54:56;;;;;;;6.20;3.60;;;;;;;3.62;49.21;101415.08;106407;1258;73463;-87
2023/11/23 01:57:42;;;;;;;8.70;4.60;;;;;;;3.51;49.47;101418.45;106178;1257;67398;-86
2023/11/23 02:00:24;;;;;;;9.10;5.10;;;;;;;3.48;49.61;101412.02;106321;1257;72702;-85
2023/11/23 02:03:05;;;;;;;11.70;5.80;;;;;;;3.54;49.59;101412.26;106251;1257;61433;-86
2023/11/23 02:05:45;;;;;;;7.50;4.50;;;;;;;3.53;49.52;101404.02;106446;1254;61118;-86
2023/11/23 02:08:25;;;;;;;9.80;4.40;;;;;;;3.51;49.54;101404.52;106200;1256;73378;-86
2023/11/23 02:11:04;;;;;;;9.20;4.60;;;;;;;3.59;49.78;101403.64;106322;1259;68461;-86
2023/11/23 02:13:44;;;;;;;11.10;5.30;;;;;;;3.73;49.49;101404.45;106235;1257;72671;-86
2023/11/23 02:16:24;;;;;;;10.20;4.50;;;;;;;3.80;49.56;101395.67;106624;1260;61403;-86
2023/11/23 02:19:04;;;;;;;6.90;3.70;;;;;;;3.84;49.68;101398.08;106326;1254;61336;-84
2023/11/23 02:21:44;;;;;;;5.40;3.50;;;;;;;3.91;49.30;101396.88;106569;1260;72637;-86
2023/11/23 02:24:24;;;;;;;8.80;4.20;;;;;;;3.89;49.16;101401.34;106087;1258;68432;-86
2023/11/23 02:27:04;;;;;;;7.50;4.40;;;;;;;3.95;49.07;101396.88;106420;1256;71491;-86
2023/11/23 02:29:44;;;;;;;10.30;5.10;;;;;;;3.99;48.99;101388.30;106002;1254;61279;-86
2023/11/23 02:32:25;;;;;;;6.60;3.60;;;;;;;3.93;48.81;101394.69;106218;1257;61351;-85
2023/11/23 02:35:05;;;;;;;6.60;4.20;;;;;;;3.87;48.90;101396.02;105963;1260;74697;-85
2023/11/23 02:37:55;;;;;;;7.70;3.60;;;;;;;3.83;49.13;101391.87;106463;1260;67264;-86
2023/11/23 02:40:36;;;;;;;6.60;3.70;;;;;;;3.78;49.06;101389.69;106081;1258;71534;-85
2023/11/23 02:43:16;;;;;;;10.60;5.70;;;;;;;3.69;49.08;101386.54;106160;1257;61326;-85
2023/11/23 02:45:56;;;;;;;13.00;7.10;;;;;;;3.58;49.44;101381.94;106085;1261;61148;-85
2023/11/23 02:48:37;;;;;;;11.70;5.60;;;;;;;3.56;49.57;101379.15;106607;1257;73427;-85
2023/11/23 02:51:19;;;;;;;5.90;4.00;;;;;;;3.64;49.41;101373.48;106107;1257;68742;-86
2023/11/23 02:53:59;;;;;;;7.10;4.20;;;;;;;3.63;49.52;101370.65;106027;1257;72658;-85
2023/11/23 02:56:39;;;;;;;7.60;4.90;;;;;;;3.59;49.38;101374.24;106179;1258;61312;-86
2023/11/23 02:59:19;;;;;;;7.10;3.90;;;;;;;3.60;49.71;101378.69;106576;1257;61260;-86
2023/11/23 03:01:59;;;;;;;10.80;4.50;;;;;;;3.67;49.61;101375.85;106287;1257;73473;-86
2023/11/23 03:04:39;;;;;;;7.20;4.40;;;;;;;3.72;49.51;101367.27;106291;1257;67477;-86
2023/11/23 03:07:19;;;;;;;9.40;5.50;;;;;;;3.76;49.31;101364.02;106470;1256;71283;-85
2023/11/23 03:10:03;;;;;;;9.10;4.60;;;;;;;3.78;49.53;101361.27;106203;1256;61363;-85
2023/11/23 03:12:43;;;;;;;8.80;5.10;;;;;;;3.74;49.10;101362.36;106291;1257;61292;-84
2023/11/23 03:15:24;;;;;;;7.50;5.10;;;;;;;3.70;48.46;101353.80;106437;1254;74718;-86
2023/11/23 03:18:04;;;;;;;8.00;4.40;;;;;;;3.70;47.80;101360.46;106172;1260;66725;-85
2023/11/23 03:20:45;;;;;;;8.40;4.80;;;;;;;3.65;47.60;101361.05;106404;1260;73010;-84
2023/11/23 03:23:27;;;;;;;8.80;4.90;;;;;;;3.67;47.13;101360.76;106318;1256;61188;-85
2023/11/23 03:26:07;;;;;;;8.20;4.80;;;;;;;3.72;46.99;101349.47;106227;1256;61493;-84
2023/11/23 03:28:47;;;;;;;10.70;4.80;;;;;;;3.68;47.17;101349.74;106418;1257;74663;-85
2023/11/23 03:31:27;;;;;;;8.80;4.00;;;;;;;3.68;46.95;101351.41;106250;1260;67127;-84
2023/11/23 03:34:07;;;;;;;11.90;5.90;;;;;;;3.65;46.80;101353.02;106263;1260;71515;-85
2023/11/23 03:36:47;;;;;;;9.80;4.60;;;;;;;3.67;46.77;101355.19;106073;1256;61156;-85
2023/11/23 03:39:30;;;;;;;10.20;5.40;;;;;;;3.74;46.33;101355.34;106859;1260;61207;-86
2023/11/23 03:42:10;;;;;;;9.70;5.00;;;;;;;3.72;46.18;101350.85;106209;1256;74581;-85
2023/11/23 03:44:50;;;;;;;8.90;5.00;;;;;;;3.63;46.15;101345.92;106185;1260;68459;-85
2023/11/23 03:47:29;;;;;;;10.30;5.30;;;;;;;3.73;46.21;101343.90;106123;1260;71494;-86
2023/11/23 03:50:10;;;;;;;7.50;4.80;;;;;;;3.78;46.25;101338.81;106111;1259;61127;-85
2023/11/23 03:52:50;;;;;;;10.40;5.10;;;;;;;3.78;45.93;101333.23;106381;1256;61404;-84
2023/11/23 03:55:52;;;;;;;7.90;4.80;;;;;;;3.77;46.08;101331.73;106202;1259;74749;-85
2023/11/23 03:58:36;;;;;;;7.50;4.90;;;;;;;3.73;46.00;101331.25;106720;1260;67336;-85
2023/11/23 04:01:17;;;;;;;9.00;5.70;;;;;;;3.79;45.58;101336.80;106150;1261;72679;-85
2023/11/23 04:04:04;;;;;;;8.90;4.80;;;;;;;3.67;45.89;101333.35;106113;1257;61046;-85
2023/11/23 04:06:44;;;;;;;7.40;5.00;;;;;;;3.71;45.77;101334.97;106277;1256;61294;-86
2023/11/23 04:09:24;;;;;;;7.50;4.30;;;;;;;3.69;45.45;101339.20;106511;1259;74988;-86
2023/11/23 04:12:04;;;;;;;8.40;4.70;;;;;;;3.63;45.58;101333.36;106237;1257;67651;-86
2023/11/23 04:14:44;;;;;;;6.00;4.30;;;;;;;3.63;45.51;101323.30;106259;1259;71462;-86
2023/11/23 04:17:23;;;;;;;6.10;4.00;;;;;;;3.70;45.24;101320.91;106254;1257;61339;-85
2023/11/23 04:20:03;;;;;;;8.10;4.30;;;;;;;3.70;45.24;101318.95;106408;1259;61170;-86
2023/11/23 04:22:43;;;;;;;9.30;4.90;;;;;;;3.68;45.16;101316.30;106209;1261;73407;-86
2023/11/23 04:25:23;;;;;;;5.80;4.10;;;;;;;3.60;45.38;101317.98;106315;1254;68408;-85
2023/11/23 04:28:04;;;;;;;7.60;4.70;;;;;;;3.54;45.42;101316.21;106198;1259;71176;-84
2023/11/23 04:30:43;;;;;;;8.30;4.40;;;;;;;3.58;45.56;101321.52;106643;1254;59333;-84
2023/11/23 04:33:18;;;;;;;8.50;4.40;;;;;;;3.55;45.58;101318.49;106507;1255;61291;-86
2023/11/23 04:35:52;;;;;;;6.90;4.30;;;;;;;3.58;45.33;101318.02;106304;1257;73410;-86
2023/11/23 04:38:26;;;;;;;5.40;3.50;;;;;;;3.50;45.06;101309.73;106183;1257;67668;-84
2023/11/23 04:41:07;;;;;;;7.60;3.70;;;;;;;3.36;45.09;101315.13;106271;1257;72686;-86
2023/11/23 04:43:41;;;;;;;6.40;3.50;;;;;;;3.32;44.78;101304.70;106751;1257;61400;-85
2023/11/23 04:46:16;;;;;;;5.50;3.50;;;;;;;3.30;44.52;101303.61;106276;1257;61169;-86
2023/11/23 04:48:56;;;;;;;6.70;3.80;;;;;;;3.28;44.68;101310.27;106214;1257;72398;-85
2023/11/23 04:51:30;;;;;;;6.70;3.70;;;;;;;3.27;44.33;101311.98;106298;1254;68383;-85
2023/11/23 04:54:04;;;;;;;6.80;3.70;;;;;;;3.30;44.48;101316.04;106459;1259;72792;-86
2023/11/23 04:56:38;;;;;;;5.50;3.30;;;;;;;3.27;44.16;101310.07;106245;1256;61282;-85
2023/11/23 04:59:16;;;;;;;7.20;4.30;;;;;;;3.32;44.13;101296.80;106231;1254;61322;-84
2023/11/23 05:01:50;;;;;;;6.10;3.30;;;;;;;3.31;44.14;101293.81;106289;1259;74651;-85
2023/11/23 05:04:24;;;;;;;6.50;3.20;;;;;;;3.30;44.08;101290.52;106719;1259;67252;-85
2023/11/23 05:06:55;;;;;;;8.30;3.50;;;;;;;3.24;43.99;101291.59;106155;1257;71433;-84
2023/11/23 05:09:54;;;;;;;8.30;3.80;;;;;;;3.21;44.04;101286.68;106251;1258;61203;-86
2023/11/23 05:12:23;;;;;;;6.50;3.50;;;;;;;3.28;44.02;101286.17;106282;1261;61336;-87
2023/11/23 05:14:53;;;;;;;5.80;3.30;;;;;;;3.28;43.70;101283.34;106633;1255;74749;-86
2023/11/23 05:17:22;;;;;;;5.90;2.90;;;;;;;3.26;43.57;101283.94;106183;1256;68479;-86
2023/11/23 05:19:52;;;;;;;4.50;2.70;;;;;;;3.24;43.21;101281.24;106181;1255;72652;-84
2023/11/23 05:22:21;;;;;;;4.70;2.60;;;;;;;3.20;43.27;101270.96;106157;1256;61257;-86
2023/11/23 05:24:50;;;;;;;5.10;2.80;;;;;;;3.22;43.12;101272.21;106416;1256;61145;-85
2023/11/23 05:27:32;;;;;;;6.80;2.90;;;;;;;3.17;42.88;101263.84;106570;1256;74671;-86
2023/11/23 05:29:59;;;;;;;5.30;3.00;;;;;;;3.13;43.17;101250.70;106181;1255;68944;-85
2023/11/23 05:32:27;;;;;;;4.90;2.70;;;;;;;3.09;43.26;101253.41;106270;1257;72694;-84
2023/11/23 05:34:55;;;;;;;5.00;3.40;;;;;;;3.13;43.47;101252.13;106409;1259;61367;-86
2023/11/23 05:37:29;;;;;;;6.50;3.30;;;;;;;3.13;43.78;101244.90;106667;1257;61162;-84
2023/11/23 05:39:56;;;;;;;4.80;3.20;;;;;;;3.16;43.83;101243.59;106173;1256;74653;-84
2023/11/23 05:42:26;;;;;;;5.70;2.90;;;;;;;3.14;43.77;101246.69;106208;1256;68396;-86
2023/11/23 05:45:30;;;;;;;5.40;3.00;;;;;;;3.14;43.64;101255.02;106306;1257;72704;-84
2023/11/23 05:48:05;;;;;;;7.00;3.40;;;;;;;3.20;43.74;101252.03;106741;1258;61327;-86
2023/11/23 05:50:46;;;;;;;6.00;2.90;;;;;;;3.27;43.75;101244.52;106318;1256;61273;-86
2023/11/23 05:53:14;;;;;;;6.10;3.90;;;;;;;3.32;43.90;101236.91;106387;1256;73394;-84
2023/11/23 05:55:58;;;;;;;6.20;3.30;;;;;;;3.35;43.95;101230.96;106491;1257;67305;-87
2023/11/23 05:58:33;;;;;;;4.40;2.80;;;;;;;3.41;44.08;101230.98;106671;1257;71494;-87
2023/11/23 06:01:07;;;;;;;5.90;3.00;;;;;;;3.47;44.10;101226.96;108875;1256;59428;-86
2023/11/23 06:03:40;;;;;;;5.90;3.40;;;;;;;3.45;44.27;101218.74;109011;1256;58902;-87
2023/11/23 06:06:21;;;;;;;7.20;3.50;;;;;;;3.53;44.29;101218.71;107596;1256;73376;-85
2023/11/23 06:08:55;;;;;;;8.10;3.90;;;;;;;3.59;44.25;101217.48;107167;1259;69022;-85
2023/11/23 06:11:30;;;;;;;8.30;3.90;;;;;;;3.62;44.28;101211.27;106502;1256;72700;-87
2023/11/23 06:13:58;;;;;;;6.60;3.60;;;;;;;3.60;44.42;101204.10;106341;1258;61754;-87
2023/11/23 06:16:30;;;;;;;8.40;4.40;;;;;;;3.65;44.37;101204.92;106257;1256;61362;-85
2023/11/23 06:18:59;;;;;;;6.90;4.10;;;;;;;3.67;44.49;101201.78;106700;1259;74676;-85
2023/11/23 06:21:30;;;;;;;8.20;4.50;;;;;;;3.67;44.50;101199.95;106235;1256;68367;-87
2023/11/23 06:24:17;;;;;;;6.20;4.00;;;;;;;3.70;44.65;101201.59;106205;1256;72486;-87
2023/11/23 06:26:45;;;;;;;7.80;4.50;;;;;;;3.78;44.63;101199.94;106151;1256;61216;-85
2023/11/23 06:29:19;;;;;;;8.40;4.80;;;;;;;3.78;44.96;101196.11;106522;1256;61221;-85
2023/11/23 06:31:56;;;;;;;7.90;4.40;;;;;;;3.84;45.10;101194.20;106186;1260;74673;-85
2023/11/23 06:34:28;;;;;;;9.90;5.10;;;;;;;3.88;45.13;101187.61;106223;1256;67241;-87
2023/11/23 06:36:55;;;;;;;8.00;4.50;;;;;;;3.97;45.27;101177.57;106277;1257;71425;-84
2023/11/23 06:39:29;;;;;;;8.80;5.10;;;;;;;4.01;45.19;101175.96;106693;1258;61712;-85
2023/11/23 06:41:57;;;;;;;8.20;5.40;;;;;;;4.01;45.28;101175.33;106242;1256;61153;-87
2023/11/23 06:44:38;;;;;;;8.90;4.80;;;;;;;4.12;45.14;101171.98;106112;1259;73866;-84
2023/11/23 06:47:06;;;;;;;10.70;6.20;;;;;;;4.20;45.02;101169.42;106305;1259;68537;-87
2023/11/23 06:49:40;;;;;;;10.80;5.20;;;;;;;4.22;44.86;101169.38;106364;1256;72661;-87
2023/11/23 06:52:08;;;;;;;8.30;4.90;;;;;;;4.22;44.85;101161.00;106574;1256;61349;-85
2023/11/23 06:54:36;;;;;;;10.40;5.80;;;;;;;4.33;44.92;101157.71;106420;1260;61449;-87
2023/11/23 06:57:46;;;;;;;8.20;4.90;;;;;;;4.36;44.85;101145.91;106061;1258;75522;-85
2023/11/23 07:00:23;;;;;;;10.30;5.50;;;;;;;4.38;44.78;101146.85;106820;1257;66497;-87
2023/11/23 07:02:55;;;;;;;8.90;5.00;;;;;;;4.38;44.68;101136.03;106130;1257;70965;-86
2023/11/23 07:05:29;;;;;;;9.30;5.40;;;;;;;4.41;44.49;101132.84;106451;1256;61621;-85
2023/11/23 07:08:03;;;;;;;9.20;5.00;;;;;;;4.45;44.64;101125.14;106092;1260;61230;-85
2023/11/23 07:10:39;;;;;;;10.10;5.30;;;;;;;4.58;44.47;101126.92;106216;1256;74668;-83
2023/11/23 07:13:07;;;;;;;10.90;5.50;;;;;;;4.55;44.26;101125.84;106393;1259;67394;-85
2023/11/23 07:15:41;;;;;;;16.90;9.30;;;;;;;4.61;44.20;101126.65;106085;1262;73621;-85
2023/11/23 07:18:29;;;;;;;11.60;6.80;;;;;;;4.64;44.30;101131.77;106009;1255;61316;-85
2023/11/23 07:20:57;;;;;;;12.10;6.30;;;;;;;4.67;44.39;101124.00;106135;1259;61266;-84
2023/11/23 07:23:26;;;;;;;8.30;4.50;;;;;;;4.80;44.18;101125.36;106553;1256;73415;-90
2023/11/23 07:26:00;;;;;;;9.10;4.90;;;;;;;4.82;44.12;101125.48;106084;1255;68406;-85
2023/11/23 07:28:54;;;;;;;8.20;5.20;;;;;;;4.76;44.20;101124.21;106057;1255;72730;-85
2023/11/23 07:31:31;;;;;;;8.00;4.80;;;;;;;4.79;44.32;101112.39;106109;1255;61282;-86
2023/11/23 07:33:59;;;;;;;9.70;5.20;;;;;;;4.88;44.06;101106.38;106827;1257;61311;-85
2023/11/23 07:36:33;;;;;;;8.80;5.80;;;;;;;4.90;43.78;101101.44;106188;1255;74776;-85
2023/11/23 07:39:08;;;;;;;9.00;4.30;;;;;;;4.89;43.70;101094.77;106090;1255;68362;-84
2023/11/23 07:41:40;;;;;;;8.90;5.00;;;;;;;4.86;43.77;101091.70;106031;1257;72682;-85
2023/11/23 07:44:11;;;;;;;7.70;4.50;;;;;;;4.81;43.92;101083.58;106187;1258;61337;-84
2023/11/23 07:46:40;;;;;;;8.50;4.90;;;;;;;4.83;43.98;101089.44;106167;1256;61873;-85
2023/11/23 07:49:12;;;;;;;6.90;4.40;;;;;;;4.81;43.95;101085.08;106327;1259;74747;-85
2023/11/23 07:51:46;;;;;;;10.20;5.80;;;;;;;4.77;44.02;101075.93;106187;1254;67293;-85
2023/11/23 07:54:13;;;;;;;9.30;5.50;;;;;;;4.78;44.14;101066.04;106524;1259;72573;-85
2023/11/23 07:56:41;;;;;;;7.80;4.70;;;;;;;4.78;44.05;101064.87;106168;1259;61333;-85
2023/11/23 07:59:16;;;;;;;9.10;5.20;;;;;;;4.71;44.07;101059.32;106283;1258;61145;-84
2023/11/23 08:01:45;;;;;;;7.80;5.10;;;;;;;4.71;44.45;101056.33;106088;1256;72398;-84
2023/11/23 08:04:18;;;;;;;8.30;4.70;;;;;;;4.80;44.36;101058.30;106985;1254;67529;-85
2023/11/23 08:06:49;;;;;;;10.10;6.40;;;;;;;4.88;44.25;101045.01;106107;1257;73987;-84
2023/11/23 08:09:21;;;;;;;10.50;5.70;;;;;;;4.96;44.05;101036.78;106201;1255;61982;-84
2023/11/23 08:11:52;;;;;;;10.00;6.00;;;;;;;4.99;43.90;101020.41;106348;1259;60018;-84
2023/11/23 08:14:26;;;;;;;12.70;7.40;;;;;;;4.95;44.19;101006.59;106199;1256;74676;-84
2023/11/23 08:16:57;;;;;;;11.40;7.20;;;;;;;4.97;44.38;101008.83;106671;1259;70030;-84
2023/11/23 08:19:30;;;;;;;8.50;5.30;;;;;;;5.01;44.36;101013.84;106336;1258;72988;-84
2023/11/23 08:22:07;;;;;;;9.60;4.70;;;;;;;5.02;44.28;101006.04;106219;1255;61277;-84
2023/11/23 08:24:35;;;;;;;8.00;5.30;;;;;;;5.03;44.23;100994.23;106512;1257;61120;-85
2023/11/23 08:27:03;;;;;;;7.90;4.90;;;;;;;5.13;44.25;100966.77;106489;1260;76975;-84
2023/11/23 08:29:38;;;;;;;10.80;5.40;;;;;;;5.13;44.10;100953.06;106345;1256;69968;-83
2023/11/23 08:32:08;;;;;;;8.20;5.00;;;;;;;5.02;44.10;100949.95;106284;1257;71457;-84
2023/11/23 08:34:37;;;;;;;10.50;6.20;;;;;;;5.04;43.94;100954.11;106211;1260;61339;-84
2023/11/23 08:37:08;;;;;;;12.70;7.50;;;;;;;5.06;43.79;100958.80;106637;1258;61233;-84
2023/11/23 08:39:40;;;;;;;9.00;5.60;;;;;;;5.05;43.86;100952.32;106360;1256;75275;-84
2023/11/23 08:42:15;;;;;;;10.10;5.80;;;;;;;5.07;44.09;100948.45;106213;1260;68331;-85
2023/11/23 08:44:43;;;;;;;8.40;5.60;;;;;;;5.04;44.11;100939.95;106296;1256;72719;-84
2023/11/23 08:47:23;;;;;;;9.00;5.10;;;;;;;5.08;43.81;100926.06;106122;1257;61258;-83
2023/11/23 08:49:50;;;;;;;8.80;5.20;;;;;;;5.05;43.78;100924.80;106300;1260;60392;-84
2023/11/23 08:52:20;;;;;;;12.40;5.70;;;;;;;5.00;43.85;100922.50;106254;1257;73081;-83
2023/11/23 08:54:47;;;;;;;11.40;6.40;;;;;;;4.92;43.95;100903.55;106258;1255;70522;-83
2023/11/23 08:57:19;;;;;;;10.30;6.20;;;;;;;4.95;44.12;100900.41;106378;1257;72706;-84
2023/11/23 08:59:51;;;;;;;12.90;7.70;;;;;;;5.02;44.05;100903.98;106216;1259;61810;-85
2023/11/23 09:02:19;;;;;;;13.30;6.90;;;;;;;5.06;43.91;100899.09;106192;1256;61455;-85
2023/11/23 09:04:49;;;;;;;17.40;10.00;;;;;;;5.13;43.80;100883.43;106321;1255;75584;-84
2023/11/23 09:08:06;;;;;;;14.10;9.00;;;;;;;5.21;43.80;100873.38;106134;1256;68760;-85
2023/11/23 13:06:50;;;;;;;14.20;7.90;;;;;;;5.47;44.47;100185.65;106713;1255;69717;-87
2023/11/23 13:09:24;;;;;;;16.60;9.60;;;;;;;5.44;44.47;100182.73;106274;1259;76296;-87
2023/11/23 13:12:04;;;;;;;18.60;8.60;;;;;;;5.54;44.31;100183.09;106158;1256;61278;-87
2023/11/23 13:14:33;;;;;;;19.00;8.30;;;;;;;5.56;44.69;100175.59;106334;1254;62359;-87
2023/11/23 13:17:08;;;;;;;17.90;7.80;;;;;;;5.52;44.84;100161.38;106185;1256;76901;-89
2023/11/23 13:19:43;;;;;;;16.70;8.40;;;;;;;5.51;45.12;100149.77;106219;1255;70475;-85
2023/11/23 13:22:12;;;;;;;14.00;7.80;;;;;;;5.61;44.91;100142.35;106332;1257;72611;-86
2023/11/23 13:24:40;;;;;;;11.70;8.20;;;;;;;5.67;44.79;100130.70;106180;1261;61675;-86
2023/11/23 13:27:14;;;;;;;18.20;8.10;;;;;;;5.68;44.60;100114.94;106134;1261;61250;-86
2023/11/23 13:29:49;;;;;;;13.60;6.80;;;;;;;5.64;45.03;100107.39;106413;1255;73488;-87
2023/11/23 13:32:19;;;;;;;12.30;7.40;;;;;;;5.64;45.10;100087.99;106074;1255;70990;-86
2023/11/23 13:34:59;;;;;;;12.30;7.40;;;;;;;5.63;45.30;100076.11;106284;1255;74711;-87
2023/11/23 13:37:39;;;;;;;12.70;6.50;;;;;;;5.67;45.49;100059.99;106155;1255;61392;-87
2023/11/23 13:40:19;;;;;;;13.50;7.30;;;;;;;5.76;45.22;100051.09;106391;1254;62338;-87
2023/11/23 13:42:52;;;;;;;13.20;7.20;;;;;;;5.80;45.35;100046.52;106153;1254;75579;-87
2023/11/23 13:45:27;;;;;;;11.80;6.90;;;;;;;5.83;45.33;100046.48;106329;1256;69839;-87
2023/11/23 13:48:08;;;;;;;12.20;6.30;;;;;;;5.83;45.35;100044.05;106241;1255;74893;-87
2023/11/23 13:50:48;;;;;;;12.90;6.70;;;;;;;5.86;45.58;100038.05;106345;1258;61346;-87
2023/11/23 13:53:28;;;;;;;11.60;6.70;;;;;;;5.89;45.77;100023.21;106200;1256;61298;-86
2023/11/23 13:55:56;;;;;;;11.90;6.40;;;;;;;5.94;45.78;100010.73;106300;1259;76992;-86
2023/11/23 13:58:30;;;;;;;10.40;6.10;;;;;;;5.91;45.93;100007.92;106247;1255;67409;-86
2023/11/23 14:01:15;;;;;;;11.70;6.70;;;;;;;5.93;46.10;99991.68;106438;1256;74307;-86
2023/11/23 14:03:49;;;;;;;9.80;5.70;;;;;;;5.93;46.37;99991.52;106372;1255;61447;-86
2023/11/23 14:06:23;;;;;;;13.50;6.70;;;;;;;5.93;46.38;99986.10;106263;1259;62620;-86
2023/11/23 14:09:03;;;;;;;9.90;5.40;;;;;;;5.93;46.38;99972.93;106343;1255;75086;-87
2023/11/23 14:11:46;;;;;;;10.50;5.90;;;;;;;5.93;46.38;99963.55;106547;1255;67581;-87
2023/11/23 14:14:19;;;;;;;13.70;5.80;;;;;;;5.96;46.61;99949.48;106178;1255;74344;-87
2023/11/23 14:16:54;;;;;;;11.40;6.60;;;;;;;6.02;46.51;99933.58;106005;1255;61629;-87
2023/11/23 14:19:29;;;;;;;11.70;5.90;;;;;;;6.03;46.89;99930.16;106221;1255;61350;-86
2023/11/23 14:22:03;;;;;;;10.90;5.50;;;;;;;6.04;46.80;99926.15;106689;1255;73394;-88
2023/11/23 14:24:45;;;;;;;9.90;6.00;;;;;;;6.06;46.71;99910.26;106141;1256;71408;-87
2023/11/23 14:27:25;;;;;;;13.00;5.80;;;;;;;6.08;47.13;99904.04;106347;1259;74736;-87
2023/11/23 14:30:10;;;;;;;8.70;5.40;;;;;;;6.12;47.08;99906.01;106302;1259;61424;-87
2023/11/23 14:32:44;;;;;;;10.60;5.80;;;;;;;6.14;47.20;99894.64;106471;1256;62054;-87
2023/11/23 14:35:21;;;;;;;11.10;5.80;;;;;;;6.13;47.26;99883.98;106361;1254;77293;-88
2023/11/23 14:38:02;;;;;;;11.60;6.60;;;;;;;6.08;47.46;99876.54;106354;1256;69044;-87
2023/11/23 14:40:42;;;;;;;10.60;5.80;;;;;;;6.14;47.62;99873.90;106244;1255;73826;-88
2023/11/23 14:43:22;;;;;;;9.90;5.60;;;;;;;6.19;47.50;99860.75;106181;1258;60403;-90
2023/11/23 14:45:58;;;;;;;10.20;6.00;;;;;;;6.24;47.48;99851.87;106528;1256;61527;-88
2023/11/23 14:48:39;;;;;;;12.50;5.70;;;;;;;6.25;47.69;99846.55;106148;1260;75235;-88
2023/11/23 14:51:20;;;;;;;9.80;6.10;;;;;;;6.29;47.39;99834.95;106150;1256;71382;-88
2023/11/23 14:53:54;;;;;;;11.10;6.40;;;;;;;6.25;47.74;99818.27;106587;1256;74905;-88
2023/11/23 14:56:31;;;;;;;12.40;6.50;;;;;;;6.16;48.03;99806.91;106185;1259;61338;-88
2023/11/23 14:59:11;;;;;;;11.20;6.40;;;;;;;6.20;47.90;99803.61;106171;1257;61220;-87
2023/11/23 15:01:53;;;;;;;11.70;6.70;;;;;;;6.34;48.04;99797.91;106103;1260;75672;-88
2023/11/23 15:04:34;;;;;;;10.30;5.70;;;;;;;6.38;47.88;99790.96;106280;1255;69005;-89
2023/11/23 15:07:08;;;;;;;12.50;6.30;;;;;;;6.43;48.13;99786.27;106146;1255;74628;-89
2023/11/23 15:09:49;;;;;;;10.80;6.20;;;;;;;6.46;47.56;99777.48;106217;1255;63025;-87
2023/11/23 15:12:24;;;;;;;10.60;5.90;;;;;;;6.44;48.07;99771.77;106180;1256;61263;-87
2023/11/23 15:14:56;;;;;;;10.50;5.70;;;;;;;6.47;48.27;99767.64;106196;1259;76769;-87
2023/11/23 15:17:30;;;;;;;9.90;5.60;;;;;;;6.51;48.13;99749.95;106902;1259;67190;-87
2023/11/23 15:20:10;;;;;;;10.60;5.90;;;;;;;6.63;48.15;99744.55;106110;1256;72990;-87
2023/11/23 15:22:50;;;;;;;10.60;6.20;;;;;;;6.68;47.93;99728.36;106084;1257;61322;-87
2023/11/23 15:25:26;;;;;;;12.40;6.10;;;;;;;6.76;48.31;99722.39;106270;1259;61296;-88
2023/11/23 15:28:00;;;;;;;16.80;6.50;;;;;;;6.61;48.68;99715.77;106487;1259;76023;-88
2023/11/23 15:30:38;;;;;;;9.40;5.40;;;;;;;6.51;49.34;99706.30;106375;1259;69858;-87
2023/11/23 15:33:18;;;;;;;11.20;5.70;;;;;;;6.51;49.62;99691.71;106172;1257;71834;-88
2023/11/23 15:35:53;;;;;;;12.60;6.40;;;;;;;6.50;50.14;99688.39;106164;1255;61322;-88
2023/11/23 15:38:28;;;;;;;13.20;7.30;;;;;;;6.44;50.67;99680.58;106706;1256;62223;-88
2023/11/23 15:41:03;;;;;;;12.70;6.80;;;;;;;6.49;50.86;99680.41;106117;1261;75735;-86
2023/11/23 15:43:37;;;;;;;10.90;5.90;;;;;;;6.40;51.50;99677.59;106361;1254;66778;-86
2023/11/23 15:46:12;;;;;;;11.20;6.30;;;;;;;6.47;51.65;99667.02;106346;1259;72747;-88
2023/11/23 15:48:39;;;;;;;12.10;6.20;;;;;;;6.57;51.51;99657.02;106331;1254;61227;-87
2023/11/23 15:51:22;;;;;;;13.70;6.50;;;;;;;6.51;52.36;99649.80;106558;1256;61153;-87
2023/11/23 15:54:04;;;;;;;12.30;6.30;;;;;;;6.57;52.50;99638.19;106248;1256;75193;-87
2023/11/23 15:56:37;;;;;;;12.50;6.50;;;;;;;6.47;53.17;99635.91;106379;1259;69281;-87
2023/11/23 15:59:11;;;;;;;14.30;6.30;;;;;;;6.38;53.63;99622.95;106348;1254;72954;-88
2023/11/23 16:01:53;;;;;;;15.30;7.70;;;;;;;6.20;54.88;99618.05;106308;1258;61280;-87
2023/11/23 16:04:33;;;;;;;12.00;6.40;;;;;;;6.25;55.38;99615.50;106411;1255;61330;-87
2023/11/23 16:07:13;;;;;;;13.10;6.90;;;;;;;6.24;55.97;99619.30;106199;1260;74608;-87